createdAt,value
2022-08-11T00:02:20.569Z,2.00
2022-08-11T00:05:04.699Z,2.00
2022-08-11T00:07:38.581Z,2.00
2022-08-11T00:10:13.560Z,2.00
2022-08-11T00:12:47.397Z,2.00
2022-08-11T00:15:21.936Z,3.00
2022-08-11T00:17:55.784Z,2.00
2022-08-11T00:20:30.650Z,1.00
2022-08-11T00:23:05.538Z,1.00
2022-08-11T00:25:40.567Z,2.00
2022-08-11T00:28:16.049Z,2.00
2022-08-11T00:30:50.372Z,2.40
2022-08-11T00:33:44.393Z,1.00
2022-08-11T00:36:23.436Z,2.00
2022-08-11T00:38:59.441Z,1.20
2022-08-11T00:41:33.398Z,1.00
2022-08-11T00:44:10.769Z,2.00
2022-08-11T00:46:44.643Z,1.00
2022-08-11T00:49:27.564Z,1.40
2022-08-11T00:52:05.480Z,2.00
2022-08-11T00:54:41.455Z,1.00
2022-08-11T00:57:37.006Z,1.00
2022-08-11T01:00:10.153Z,2.00
2022-08-11T01:02:45.038Z,2.00
2022-08-11T01:05:19.975Z,2.00
2022-08-11T01:08:01.525Z,2.00
2022-08-11T01:10:37.422Z,1.60
2022-08-11T01:13:11.714Z,2.00
2022-08-11T01:15:55.969Z,2.00
2022-08-11T01:18:31.531Z,2.00
2022-08-11T01:21:06.290Z,2.00
2022-08-11T01:23:41.168Z,1.00
2022-08-11T01:26:15.994Z,1.60
2022-08-11T01:28:51.191Z,1.00
2022-08-11T01:31:27.293Z,2.00
2022-08-11T01:34:02.251Z,2.00
2022-08-11T01:36:37.056Z,2.00
2022-08-11T01:39:25.390Z,1.00
2022-08-11T01:42:18.796Z,1.00
2022-08-11T01:44:53.696Z,1.00
2022-08-11T01:47:52.745Z,2.00
2022-08-11T01:50:27.760Z,2.00
2022-08-11T01:53:01.974Z,3.50
2022-08-11T01:55:36.780Z,2.75
2022-08-11T01:58:11.091Z,2.25
2022-08-11T02:00:46.016Z,1.50
2022-08-11T02:03:20.809Z,3.00
2022-08-11T02:06:02.062Z,3.50
2022-08-11T02:08:36.887Z,3.40
2022-08-11T02:11:35.641Z,4.00
2022-08-11T02:14:11.642Z,3.00
2022-08-11T02:16:46.451Z,3.00
2022-08-11T02:19:39.064Z,3.00
2022-08-11T02:22:32.683Z,3.00
2022-08-11T02:25:07.463Z,3.50
2022-08-11T02:27:42.114Z,3.00
2022-08-11T02:30:17.045Z,3.00
2022-08-11T02:33:10.364Z,3.00
2022-08-11T02:35:47.243Z,3.00
2022-08-11T02:38:22.738Z,2.00
2022-08-11T02:40:57.562Z,3.00
2022-08-11T02:43:32.360Z,2.50
2022-08-11T02:46:07.274Z,3.00
2022-08-11T02:49:10.442Z,3.00
2022-08-11T02:51:45.239Z,4.00
2022-08-11T02:54:21.198Z,2.00
2022-08-11T02:56:55.529Z,3.00
2022-08-11T02:59:48.170Z,2.00
2022-08-11T03:02:34.207Z,2.00
2022-08-11T03:05:09.107Z,2.75
2022-08-11T03:08:03.757Z,3.00
2022-08-11T03:10:37.651Z,3.00
2022-08-11T03:13:31.452Z,1.80
2022-08-11T03:16:25.735Z,4.00
2022-08-11T03:19:00.430Z,4.00
2022-08-11T03:22:01.408Z,3.00
2022-08-11T03:24:40.829Z,3.80
2022-08-11T03:27:15.564Z,4.80
2022-08-11T03:29:55.251Z,3.50
2022-08-11T03:32:30.814Z,3.00
2022-08-11T03:35:05.087Z,4.00
2022-08-11T03:37:51.866Z,5.00
2022-08-11T03:40:45.071Z,4.00
2022-08-11T03:43:19.967Z,4.00
2022-08-11T03:45:58.152Z,4.00
2022-08-11T03:48:32.953Z,3.00
2022-08-11T03:51:09.367Z,2.20
2022-08-11T03:53:44.291Z,3.00
2022-08-11T03:56:20.027Z,2.00
2022-08-11T03:58:53.912Z,3.00
2022-08-11T04:01:30.425Z,2.00
2022-08-11T04:04:04.730Z,2.00
2022-08-11T04:06:39.557Z,3.00
2022-08-11T04:09:19.439Z,1.00
2022-08-11T04:11:55.791Z,3.00
2022-08-11T04:15:08.524Z,2.00
2022-08-11T06:50:27.498Z,3.00
2022-08-11T06:53:13.035Z,2.00
2022-08-11T06:56:04.718Z,4.00
2022-08-11T06:58:57.030Z,3.00
2022-08-11T07:01:32.343Z,1.00
2022-08-11T07:04:07.416Z,2.00
2022-08-11T07:06:51.202Z,1.00
2022-08-11T07:09:48.022Z,2.00
2022-08-11T07:12:41.801Z,2.00
2022-08-11T07:16:10.781Z,2.60
2022-08-11T07:18:51.366Z,3.00
2022-08-11T07:22:02.886Z,2.40
2022-08-11T07:25:29.208Z,3.00
2022-08-11T07:28:25.692Z,2.00
2022-08-11T07:31:03.686Z,2.00
2022-08-11T07:34:07.326Z,2.00
2022-08-11T07:36:33.366Z,3.00
2022-08-11T07:39:08.331Z,3.50
2022-08-11T07:47:30.752Z,3.00
2022-08-11T07:50:23.029Z,3.00
2022-08-11T07:52:58.605Z,2.00
2022-08-11T07:55:50.978Z,2.00
2022-08-11T07:58:45.670Z,2.00
2022-08-11T08:01:46.031Z,3.00
2022-08-11T08:04:38.708Z,2.00
2022-08-11T08:07:30.872Z,4.00
2022-08-11T08:10:26.109Z,3.00
2022-08-11T08:13:18.198Z,3.00
2022-08-11T08:16:10.515Z,3.00
2022-08-11T08:18:44.872Z,3.00
2022-08-11T08:21:20.700Z,4.00
2022-08-11T08:23:56.449Z,4.00
2022-08-11T08:26:51.810Z,4.00
2022-08-11T08:29:44.724Z,3.00
2022-08-11T08:32:18.712Z,3.00
2022-08-11T08:34:52.633Z,3.00
2022-08-11T08:37:46.664Z,3.00
2022-08-11T08:40:21.598Z,3.00
2022-08-11T08:43:01.247Z,3.00
2022-08-11T08:45:35.216Z,4.00
2022-08-11T08:48:11.983Z,4.00
2022-08-11T08:51:04.859Z,4.00
2022-08-11T08:53:52.447Z,3.00
2022-08-11T08:56:29.088Z,3.00
2022-08-11T08:59:02.961Z,3.00
2022-08-11T09:01:36.993Z,3.00
2022-08-11T09:04:17.427Z,4.00
2022-08-11T09:06:55.573Z,3.00
2022-08-11T09:09:29.862Z,4.20
2022-08-11T09:12:06.052Z,2.50
2022-08-11T09:15:01.575Z,3.50
2022-08-11T09:17:35.486Z,3.00
2022-08-11T09:20:09.431Z,3.00
2022-08-11T09:23:41.694Z,4.00
2022-08-11T09:26:14.432Z,3.60
2022-08-11T09:28:48.283Z,2.60
2022-08-11T09:31:24.799Z,3.00
2022-08-11T09:33:58.712Z,2.75
2022-08-11T09:36:50.701Z,3.75
2022-08-11T09:39:43.915Z,5.00
2022-08-11T09:42:23.652Z,5.00
2022-08-11T09:45:00.814Z,3.60
2022-08-11T09:47:35.972Z,5.60
2022-08-11T09:50:10.624Z,5.50
2022-08-11T09:53:03.607Z,6.00
2022-08-11T09:55:38.527Z,4.25
2022-08-11T09:58:41.710Z,5.00
2022-08-11T10:01:28.293Z,5.00
2022-08-11T10:04:05.751Z,4.00
2022-08-11T10:06:57.730Z,5.00
2022-08-11T10:09:55.340Z,5.00
2022-08-11T10:12:30.452Z,3.20
2022-08-11T10:15:22.431Z,3.40
2022-08-11T10:18:15.033Z,4.00
2022-08-11T10:20:52.170Z,4.00
2022-08-11T10:24:01.034Z,3.25
2022-08-11T10:26:56.120Z,3.75
2022-08-11T10:30:11.183Z,5.50
2022-08-11T10:33:04.505Z,4.60
2022-08-11T10:35:43.905Z,5.00
2022-08-11T10:38:18.042Z,5.00
2022-08-11T10:41:11.903Z,3.60
2022-08-11T10:44:02.904Z,4.00
2022-08-11T10:46:55.743Z,4.40
2022-08-11T10:49:32.925Z,4.50
2022-08-11T10:52:25.165Z,5.50
2022-08-11T10:55:18.290Z,5.00
2022-08-11T10:58:10.436Z,4.60
2022-08-11T11:00:44.370Z,6.00
2022-08-11T11:03:22.806Z,6.00
2022-08-11T11:06:27.585Z,4.00
2022-08-11T11:08:58.754Z,5.60
2022-08-11T11:11:55.190Z,4.40
2022-08-11T11:15:08.438Z,4.00
2022-08-11T11:18:11.440Z,4.00
2022-08-11T11:21:15.624Z,5.00
2022-08-11T11:24:01.936Z,3.00
2022-08-11T11:30:00.993Z,4.75
2022-08-11T11:32:40.853Z,4.00
2022-08-11T11:38:25.060Z,5.00
2022-08-11T11:41:22.855Z,7.25
2022-08-11T11:44:10.102Z,9.50
2022-08-11T11:47:03.054Z,8.50
2022-08-11T11:52:50.249Z,9.25
2022-08-11T12:01:42.722Z,9.00
2022-08-11T12:04:37.941Z,8.00
2022-08-11T12:07:42.407Z,9.20
2022-08-11T12:10:18.529Z,8.00
2022-08-11T12:13:14.248Z,6.40
2022-08-11T12:16:31.824Z,7.00
2022-08-11T12:18:58.903Z,7.40
2022-08-11T12:21:35.468Z,7.00
2022-08-11T12:24:30.636Z,7.00
2022-08-11T12:27:28.639Z,9.00
2022-08-11T12:30:08.720Z,8.00
2022-08-11T12:32:51.576Z,10.60
2022-08-11T12:35:58.857Z,9.00
2022-08-11T13:12:58.017Z,9.00
2022-08-11T13:15:35.664Z,9.00
2022-08-11T13:18:11.745Z,8.20
2022-08-11T13:20:46.496Z,9.50
2022-08-11T13:23:20.913Z,8.00
2022-08-11T13:25:55.483Z,8.50
2022-08-11T13:28:30.697Z,9.00
2022-08-11T13:31:15.195Z,9.40
2022-08-11T13:33:50.811Z,10.80
2022-08-11T13:36:29.454Z,8.75
2022-08-11T13:39:05.230Z,8.00
2022-08-11T13:41:41.551Z,8.00
2022-08-11T13:44:20.440Z,8.00
2022-08-11T13:46:59.298Z,8.25
2022-08-11T13:49:33.686Z,7.00
2022-08-11T13:52:08.987Z,5.50
2022-08-11T13:54:43.536Z,8.20
2022-08-11T13:58:07.656Z,6.00
2022-08-11T14:00:26.905Z,7.80
2022-08-11T14:03:02.707Z,8.60
2022-08-11T14:05:37.822Z,9.00
2022-08-11T14:08:37.807Z,9.00
2022-08-11T14:12:21.964Z,8.00
2022-08-11T14:14:21.374Z,5.60
2022-08-11T14:16:55.629Z,6.00
2022-08-11T14:19:29.856Z,6.40
2022-08-11T14:22:10.914Z,5.00
2022-08-11T14:24:45.112Z,6.00
2022-08-11T14:28:22.033Z,6.40
2022-08-11T14:30:33.611Z,5.00
2022-08-11T14:33:17.117Z,7.00
2022-08-11T14:35:55.008Z,5.60
2022-08-11T14:38:29.451Z,5.00
2022-08-11T14:42:08.505Z,7.00
2022-08-11T14:44:56.227Z,8.00
2022-08-11T14:47:37.245Z,5.75
2022-08-11T14:50:12.848Z,9.00
2022-08-11T14:52:48.145Z,7.67
2022-08-11T14:55:40.754Z,8.75
2022-08-11T14:58:14.963Z,12.00
2022-08-11T15:00:49.734Z,11.50
2022-08-11T15:03:37.107Z,11.00
2022-08-11T15:06:11.738Z,11.00
2022-08-11T15:08:55.778Z,9.60
2022-08-11T15:11:50.425Z,9.00
2022-08-11T15:14:42.799Z,11.40
2022-08-11T15:17:19.059Z,10.25
2022-08-11T15:20:11.969Z,12.00
2022-08-11T15:23:19.092Z,11.00
2022-08-11T15:25:53.527Z,11.00
2022-08-11T15:28:57.085Z,13.00
2022-08-11T15:31:49.661Z,12.00
2022-08-11T15:34:43.109Z,19.00
2022-08-11T15:37:30.775Z,21.00
2022-08-11T15:40:31.097Z,21.25
2022-08-11T15:43:45.521Z,18.60
2022-08-11T15:46:19.710Z,20.50
2022-08-11T15:49:25.843Z,17.00
2022-08-11T15:52:20.039Z,14.00
2022-08-11T15:54:55.273Z,12.40
2022-08-11T15:57:48.308Z,13.25
2022-08-11T16:00:42.388Z,14.00
2022-08-11T16:04:07.986Z,13.60
2022-08-11T16:06:49.291Z,12.00
2022-08-11T16:09:46.950Z,13.00
2022-08-11T16:12:28.753Z,12.00
2022-08-11T16:15:21.540Z,10.00
2022-08-11T16:17:56.744Z,8.00
2022-08-11T16:20:32.703Z,11.00
2022-08-11T16:23:06.942Z,9.00
2022-08-11T16:27:05.147Z,9.00
2022-08-11T16:29:15.235Z,11.00
2022-08-11T16:32:10.590Z,11.00
2022-08-11T16:35:03.127Z,9.00
2022-08-11T16:37:55.848Z,9.00
2022-08-11T16:40:30.366Z,9.60
2022-08-11T16:43:23.864Z,9.00
2022-08-11T16:46:38.841Z,11.00
2022-08-11T16:49:34.242Z,11.50
2022-08-11T16:52:12.856Z,12.00
2022-08-11T16:54:52.717Z,11.00
2022-08-11T16:57:46.372Z,7.00
2022-08-11T17:00:21.620Z,7.00
2022-08-11T17:03:15.482Z,8.50
2022-08-11T17:06:09.462Z,8.00
2022-08-11T17:09:02.209Z,8.00
2022-08-11T17:11:54.533Z,6.00
2022-08-11T17:14:41.492Z,8.00
2022-08-11T17:17:16.283Z,9.00
2022-08-11T17:20:42.136Z,10.00
2022-08-11T17:23:06.092Z,8.00
2022-08-11T17:26:03.876Z,9.25
2022-08-11T17:28:38.923Z,9.00
2022-08-11T17:31:31.318Z,7.00
2022-08-11T17:34:24.656Z,8.50
2022-08-11T17:36:58.615Z,8.20
2022-08-11T17:39:53.632Z,10.50
2022-08-11T17:42:46.209Z,8.40
2022-08-11T17:45:40.528Z,9.00
2022-08-11T17:48:27.235Z,8.00
2022-08-11T17:51:01.832Z,7.40
2022-08-11T17:54:02.203Z,7.60
2022-08-11T17:57:05.945Z,6.00
2022-08-11T17:59:54.256Z,7.00
2022-08-11T18:02:47.479Z,4.00
2022-08-11T18:05:21.720Z,5.00
2022-08-11T18:08:14.143Z,6.00
2022-08-11T18:11:06.257Z,6.00
